createdAt,value
2019-03-15T00:00:48.442Z,97.97
2019-03-15T00:01:48.435Z,97.97
2019-03-15T00:02:48.420Z,98.36
2019-03-15T00:03:48.520Z,98.26
2019-03-15T00:04:48.395Z,98.26
2019-03-15T00:05:48.385Z,98.02
2019-03-15T00:06:48.367Z,98.21
2019-03-15T00:07:48.355Z,98.55
2019-03-15T00:08:48.344Z,98.45
2019-03-15T00:09:48.535Z,98.36
2019-03-15T00:10:48.318Z,98.07
2019-03-15T00:11:48.306Z,98.55
2019-03-15T00:12:48.331Z,98.26
2019-03-15T00:13:48.283Z,99.11
2019-03-15T00:14:48.270Z,98.55
2019-03-15T00:15:48.259Z,98.36
2019-03-15T00:16:48.245Z,98.45
2019-03-15T00:17:48.231Z,98.55
2019-03-15T00:18:49.304Z,98.45
2019-03-15T00:19:48.226Z,98.64
2019-03-15T00:20:48.197Z,99.3
2019-03-15T00:21:48.188Z,98.45
2019-03-15T00:22:48.170Z,99.11
2019-03-15T00:23:48.159Z,99.11
2019-03-15T00:24:48.144Z,98.64
2019-03-15T00:25:48.142Z,98.93
2019-03-15T00:26:48.132Z,98.93
2019-03-15T00:27:48.110Z,99.02
2019-03-15T00:28:48.101Z,99.11
2019-03-15T00:29:48.085Z,98.83
2019-03-15T00:30:48.072Z,98.79
2019-03-15T00:31:48.061Z,98.88
2019-03-15T00:32:48.049Z,98.79
2019-03-15T00:33:48.034Z,99.54
2019-03-15T00:34:48.021Z,99.54
2019-03-15T00:35:48.009Z,99.07
2019-03-15T00:36:47.997Z,99.44
2019-03-15T00:37:47.983Z,99.44
2019-03-15T00:38:47.974Z,98.88
2019-03-15T00:39:47.959Z,99.35
2019-03-15T00:40:47.947Z,99.35
2019-03-15T00:41:47.938Z,98.88
2019-03-15T00:42:47.925Z,98.79
2019-03-15T00:43:49.312Z,98.79
2019-03-15T00:44:47.896Z,98.97
2019-03-15T00:45:47.885Z,99.44
2019-03-15T00:46:47.872Z,99.54
2019-03-15T00:47:47.865Z,98.97
2019-03-15T00:48:47.864Z,98.69
2019-03-15T00:49:47.839Z,99.4
2019-03-15T00:50:47.821Z,99.11
2019-03-15T00:51:47.812Z,98.5
2019-03-15T00:52:47.795Z,98.97
2019-03-15T00:53:47.788Z,99.07
2019-03-15T00:54:47.771Z,98.97
2019-03-15T00:55:47.922Z,99.16
2019-03-15T00:56:47.746Z,99.16
2019-03-15T00:57:47.732Z,98.88
2019-03-15T00:58:47.721Z,98.93
2019-03-15T00:59:47.708Z,98.64
2019-03-15T01:00:47.703Z,98.55
2019-03-15T01:01:48.112Z,98.55
2019-03-15T01:02:47.760Z,98.93
2019-03-15T01:03:47.658Z,99.02
2019-03-15T01:04:47.645Z,99.21
2019-03-15T01:05:47.657Z,98.74
2019-03-15T01:06:47.623Z,99.21
2019-03-15T01:07:47.628Z,98.83
2019-03-15T01:08:47.597Z,99.02
2019-03-15T01:09:47.585Z,98.93
2019-03-15T01:10:47.570Z,99.21
2019-03-15T01:11:48.122Z,99.02
2019-03-15T01:12:47.562Z,99.02
2019-03-15T01:13:47.534Z,99.02
2019-03-15T01:14:47.522Z,99.21
2019-03-15T01:15:47.509Z,98.55
2019-03-15T01:16:47.503Z,98.93
2019-03-15T01:17:47.484Z,98.64
2019-03-15T01:18:47.472Z,98.64
2019-03-15T01:19:47.459Z,98.93
2019-03-15T01:20:47.449Z,98.64
2019-03-15T01:21:47.435Z,98.64
2019-03-15T01:22:47.422Z,98.83
2019-03-15T01:23:47.458Z,98.74
2019-03-15T01:24:47.399Z,98.45
2019-03-15T01:25:47.389Z,98.55
2019-03-15T01:26:47.373Z,98.83
2019-03-15T01:27:47.449Z,98.55
2019-03-15T01:28:47.348Z,98.83
2019-03-15T01:29:47.337Z,98.26
2019-03-15T01:30:47.331Z,97.97
2019-03-15T01:31:47.370Z,98.07
2019-03-15T01:32:47.302Z,98.74
2019-03-15T01:33:47.289Z,99.02
2019-03-15T01:34:47.278Z,98.26
2019-03-15T01:35:47.267Z,98.45
2019-03-15T01:36:47.257Z,98.55
2019-03-15T01:37:47.262Z,98.83
2019-03-15T01:38:47.228Z,98.36
2019-03-15T01:39:47.329Z,97.97
2019-03-15T01:40:48.719Z,97.88
2019-03-15T01:41:47.189Z,98.26
2019-03-15T01:42:47.630Z,98.26
2019-03-15T01:43:47.165Z,98.74
2019-03-15T01:44:47.391Z,98.55
2019-03-15T01:45:47.144Z,98.36
2019-03-15T01:46:47.129Z,97.88
2019-03-15T01:47:47.121Z,98.26
2019-03-15T01:48:47.109Z,97.69
2019-03-15T01:49:47.289Z,98.17
2019-03-15T01:50:47.080Z,98.45
2019-03-15T01:51:47.068Z,98.26
2019-03-15T01:52:47.062Z,98.36
2019-03-15T01:53:47.043Z,98.36
2019-03-15T01:54:47.092Z,98.45
2019-03-15T01:55:47.026Z,98.55
2019-03-15T01:56:47.009Z,98.07
2019-03-15T01:57:46.994Z,98.07
2019-03-15T01:58:46.983Z,97.97
2019-03-15T01:59:46.970Z,98.07
2019-03-15T02:00:46.960Z,98.26
2019-03-15T02:01:46.951Z,98.45
2019-03-15T02:02:46.934Z,98.26
2019-03-15T02:03:46.923Z,98.26
2019-03-15T02:04:46.943Z,98.45
2019-03-15T02:05:46.899Z,98.36
2019-03-15T02:06:46.884Z,98.36
2019-03-15T02:07:46.875Z,98.17
2019-03-15T02:08:46.862Z,98.55
2019-03-15T02:09:47.080Z,98.36
2019-03-15T02:10:46.838Z,98.36
2019-03-15T02:11:46.825Z,98.55
2019-03-15T02:12:47.443Z,98.36
2019-03-15T02:13:46.801Z,98.41
2019-03-15T02:14:46.792Z,98.36
2019-03-15T02:15:46.775Z,97.97
2019-03-15T02:16:46.763Z,98.07
2019-03-15T02:17:46.751Z,97.97
2019-03-15T02:18:46.904Z,98.26
2019-03-15T02:19:46.727Z,98.83
2019-03-15T02:20:46.715Z,98.83
2019-03-15T02:21:46.701Z,99.02
2019-03-15T02:22:46.690Z,98.74
2019-03-15T02:23:46.680Z,98.83
2019-03-15T02:24:46.670Z,99.02
2019-03-15T02:25:46.655Z,99.5
2019-03-15T02:26:46.643Z,99.36
2019-03-15T02:27:46.631Z,99.3
2019-03-15T02:28:46.617Z,99.36
2019-03-15T02:29:46.605Z,99.07
2019-03-15T02:30:46.624Z,99.5
2019-03-15T02:31:47.081Z,99.07
2019-03-15T02:32:46.572Z,98.83
2019-03-15T02:33:46.567Z,99.07
2019-03-15T02:34:46.553Z,99.07
2019-03-15T02:35:47.183Z,98.69
2019-03-15T02:36:46.521Z,99.02
2019-03-15T02:37:46.522Z,98.6
2019-03-15T02:38:46.499Z,98.69
2019-03-15T02:39:46.539Z,98.93
2019-03-15T02:40:46.503Z,98.74
2019-03-15T02:41:46.463Z,98.93
2019-03-15T02:42:46.457Z,98.93
2019-03-15T02:43:46.540Z,98.64
2019-03-15T02:44:46.429Z,98.79
2019-03-15T02:45:46.412Z,98.88
2019-03-15T02:46:46.411Z,98.79
2019-03-15T02:47:46.805Z,98.41
2019-03-15T02:48:46.380Z,98.6
2019-03-15T02:49:46.376Z,99.11
2019-03-15T02:50:46.356Z,98.41
2019-03-15T02:51:46.354Z,98.6
2019-03-15T02:52:46.354Z,98.31
2019-03-15T02:53:46.347Z,97.93
2019-03-15T02:54:46.302Z,98.12
2019-03-15T02:55:46.582Z,98.22
2019-03-15T02:56:46.294Z,97.64
2019-03-15T02:57:46.271Z,98.41
2019-03-15T02:58:46.296Z,97.83
2019-03-15T02:59:47.174Z,98.31
2019-03-15T03:00:46.231Z,97.93
2019-03-15T03:01:46.222Z,98.22
2019-03-15T03:02:46.239Z,98.03
2019-03-15T03:03:47.173Z,98.22
2019-03-15T03:04:46.184Z,98.31
2019-03-15T03:05:46.202Z,98.22
2019-03-15T03:06:46.158Z,97.83
2019-03-15T03:07:46.152Z,98.03
2019-03-15T03:08:46.139Z,98.12
2019-03-15T03:09:46.124Z,98.22
2019-03-15T03:10:46.122Z,98.12
2019-03-15T03:11:46.113Z,97.93
2019-03-15T03:12:46.613Z,98.5
2019-03-15T03:13:46.080Z,98.03
2019-03-15T03:14:46.071Z,98.22
2019-03-15T03:15:46.060Z,98.22
2019-03-15T03:16:46.404Z,98.12
2019-03-15T03:17:46.032Z,98.31
2019-03-15T03:18:46.019Z,98.12
2019-03-15T03:19:46.003Z,98.31
2019-03-15T03:20:46.082Z,98.31
2019-03-15T03:21:45.982Z,97.74
2019-03-15T03:22:45.969Z,97.74
2019-03-15T03:23:45.955Z,97.83
2019-03-15T03:24:45.968Z,97.74
2019-03-15T03:25:46.905Z,97.93
2019-03-15T03:26:45.922Z,97.55
2019-03-15T03:27:45.919Z,97.55
2019-03-15T03:28:45.894Z,97.17
2019-03-15T03:29:46.864Z,97.36
2019-03-15T03:30:48.314Z,97.55
2019-03-15T03:31:47.141Z,97.17
2019-03-15T03:32:47.237Z,97.55
2019-03-15T03:33:46.005Z,97.93
2019-03-15T03:34:45.832Z,97.64
2019-03-15T03:35:45.810Z,97.17
2019-03-15T03:36:45.799Z,96.89
2019-03-15T03:37:47.606Z,97.45
2019-03-15T03:38:45.780Z,97.93
2019-03-15T03:39:45.764Z,97.93
2019-03-15T03:40:45.765Z,97.83
2019-03-15T03:41:45.740Z,98.69
2019-03-15T03:42:45.735Z,98.41
2019-03-15T03:43:45.716Z,98.6
2019-03-15T03:44:45.700Z,98.97
2019-03-15T03:45:45.689Z,98.97
2019-03-15T03:46:45.677Z,98.79
2019-03-15T03:47:45.884Z,99.3
2019-03-15T03:48:45.654Z,99.02
2019-03-15T03:49:45.642Z,99.59
2019-03-15T03:50:45.885Z,99.78
2019-03-15T03:51:45.632Z,99.59
2019-03-15T03:52:45.605Z,99.78
2019-03-15T03:53:45.612Z,99.97
2019-03-15T03:54:45.579Z,99.78
2019-03-15T03:55:45.569Z,99.59
2019-03-15T03:56:45.924Z,99.99
2019-03-15T03:57:45.545Z,99.78
2019-03-15T03:58:45.539Z,99.99
2019-03-15T03:59:45.525Z,99.99
2019-03-15T04:00:45.506Z,99.99
2019-03-15T04:01:45.575Z,99.78
2019-03-15T04:02:45.483Z,99.99
2019-03-15T04:03:45.471Z,99.99
2019-03-15T04:04:45.499Z,99.99
2019-03-15T04:05:45.445Z,99.99
2019-03-15T04:06:45.437Z,99.99
2019-03-15T04:07:45.420Z,99.99
2019-03-15T04:08:45.413Z,99.99
2019-03-15T04:09:45.400Z,99.99
2019-03-15T04:10:45.463Z,99.99
2019-03-15T04:11:57.253Z,99.99
2019-03-15T04:12:45.363Z,99.99
2019-03-15T04:13:45.351Z,99.99
2019-03-15T04:14:45.337Z,99.99
2019-03-15T04:15:45.324Z,99.99
2019-03-15T04:16:45.312Z,99.99
2019-03-15T04:17:45.301Z,99.99
2019-03-15T04:18:45.297Z,99.99
2019-03-15T04:19:45.278Z,99.99
2019-03-15T04:20:45.261Z,99.69
2019-03-15T04:21:45.255Z,99.99
2019-03-15T04:22:45.241Z,99.99
2019-03-15T04:23:45.228Z,99.99
2019-03-15T04:24:45.216Z,99.99
2019-03-15T04:25:45.297Z,99.97
2019-03-15T04:26:45.190Z,99.97
2019-03-15T04:27:45.178Z,99.59
2019-03-15T04:28:45.165Z,99.59
2019-03-15T04:29:45.158Z,99.97
2019-03-15T04:30:45.144Z,99.5
2019-03-15T04:31:45.129Z,99.59
2019-03-15T04:32:45.116Z,99.59
2019-03-15T04:33:45.105Z,99.4
2019-03-15T04:34:45.091Z,99.21
2019-03-15T04:35:45.086Z,98.93
2019-03-15T04:36:45.076Z,98.93
2019-03-15T04:37:45.066Z,98.64
2019-03-15T04:38:45.044Z,98.64
2019-03-15T04:39:45.030Z,98.83
2019-03-15T04:40:45.019Z,99.02
2019-03-15T04:41:45.028Z,99.21
2019-03-15T04:42:45.001Z,99.02
2019-03-15T04:43:44.983Z,98.74
2019-03-15T04:44:44.971Z,98.83
2019-03-15T04:45:44.957Z,98.26
2019-03-15T04:46:44.955Z,98.36
2019-03-15T04:47:46.152Z,98.45
2019-03-15T04:48:44.922Z,99.02
2019-03-15T04:49:44.913Z,98.26
2019-03-15T04:50:44.896Z,97.97
2019-03-15T04:51:44.890Z,97.97
2019-03-15T04:52:44.872Z,98.55
2019-03-15T04:53:44.858Z,98.26
2019-03-15T04:54:44.855Z,98.83
2019-03-15T04:55:44.835Z,98.83
2019-03-15T04:56:44.823Z,98.93
2019-03-15T04:57:44.810Z,98.93
2019-03-15T04:58:44.804Z,99.02
2019-03-15T04:59:44.785Z,99.16
2019-03-15T05:00:44.774Z,99.07
2019-03-15T05:01:44.762Z,99.45
2019-03-15T05:02:44.749Z,99.07
2019-03-15T05:03:44.740Z,99.16
2019-03-15T05:04:44.726Z,99.45
2019-03-15T05:05:44.720Z,99.64
2019-03-15T05:06:44.705Z,99.4
2019-03-15T05:07:44.693Z,99.64
2019-03-15T05:08:44.678Z,99.4
2019-03-15T05:09:44.664Z,99.3
2019-03-15T05:10:44.654Z,99.5
2019-03-15T05:11:44.641Z,99.5
2019-03-15T05:12:44.633Z,99.5
2019-03-15T05:13:44.615Z,99.4
2019-03-15T05:14:44.604Z,99.97
2019-03-15T05:15:44.591Z,99.99
2019-03-15T05:16:44.577Z,99.59
2019-03-15T05:17:44.567Z,99.97
2019-03-15T05:18:44.555Z,99.88
2019-03-15T05:19:44.542Z,99.69
2019-03-15T05:20:44.530Z,99.59
2019-03-15T05:21:44.613Z,99.97
2019-03-15T05:22:44.518Z,99.88
2019-03-15T05:23:44.493Z,99.88
2019-03-15T05:24:44.483Z,99.88
2019-03-15T05:25:44.474Z,99.97
2019-03-15T05:26:44.459Z,99.99
2019-03-15T05:27:44.444Z,99.5
2019-03-15T05:28:44.431Z,99.4
2019-03-15T05:29:44.439Z,99.5
2019-03-15T05:30:44.409Z,99.78
2019-03-15T05:31:44.398Z,99.59
2019-03-15T05:32:44.382Z,99.4
2019-03-15T05:33:44.373Z,99.5
2019-03-15T05:34:44.359Z,99.11
2019-03-15T05:35:44.344Z,99.78
2019-03-15T05:36:44.343Z,99.21
2019-03-15T05:37:44.085Z,98.83
2019-03-15T05:38:44.307Z,98.93
2019-03-15T05:39:44.296Z,99.11
2019-03-15T05:40:44.286Z,99.07
2019-03-15T05:41:44.276Z,99.26
2019-03-15T05:42:44.259Z,98.31
2019-03-15T05:43:44.250Z,98.5
2019-03-15T05:44:44.247Z,98.31
2019-03-15T05:45:44.227Z,98.31
2019-03-15T05:46:44.212Z,98.6
2019-03-15T05:47:44.199Z,98.69
2019-03-15T05:48:44.194Z,98.5
2019-03-15T05:49:44.174Z,98.22
2019-03-15T05:50:44.165Z,98.03
2019-03-15T05:51:44.150Z,97.93
2019-03-15T05:52:44.149Z,98.12
2019-03-15T05:53:44.128Z,98.03
2019-03-15T05:54:44.113Z,98.03
2019-03-15T05:55:44.108Z,98.88
2019-03-15T05:56:44.094Z,98.03
2019-03-15T05:57:44.081Z,98.12
2019-03-15T05:58:44.072Z,98.12
2019-03-15T05:59:44.055Z,98.12
2019-03-15T06:00:44.044Z,98.22
2019-03-15T06:01:44.035Z,98.12
2019-03-15T06:02:44.030Z,97.55
2019-03-15T06:03:50.949Z,98.31
2019-03-15T06:04:43.997Z,97.83
2019-03-15T06:05:43.987Z,98.12
2019-03-15T06:06:43.972Z,97.93
2019-03-15T06:07:43.958Z,97.64
2019-03-15T06:08:43.946Z,97.55
2019-03-15T06:09:43.935Z,97.83
2019-03-15T06:10:43.929Z,98.12
2019-03-15T06:11:43.917Z,98.03
2019-03-15T06:12:43.902Z,97.74
2019-03-15T06:13:43.890Z,97.64
2019-03-15T06:14:46.732Z,97.93
2019-03-15T06:15:43.864Z,97.83
2019-03-15T06:16:43.861Z,97.64
2019-03-15T06:17:43.848Z,97.64
2019-03-15T06:18:43.828Z,98.12
2019-03-15T06:19:43.970Z,98.03
2019-03-15T06:20:43.805Z,98.41
2019-03-15T06:21:43.794Z,98.41
2019-03-15T06:22:43.800Z,98.41
2019-03-15T06:23:43.773Z,98.31
2019-03-15T06:24:43.757Z,97.93
2019-03-15T06:25:43.750Z,99.07
2019-03-15T06:26:43.733Z,98.69
2019-03-15T06:27:43.728Z,99.07
2019-03-15T06:28:43.710Z,99.07
2019-03-15T06:29:43.701Z,99.07
2019-03-15T06:30:43.686Z,99.45
2019-03-15T06:31:43.676Z,98.79
2019-03-15T06:32:43.668Z,98.6
2019-03-15T06:33:43.655Z,98.41
2019-03-15T06:34:43.722Z,98.97
2019-03-15T06:35:43.628Z,98.5
2019-03-15T06:36:43.621Z,98.88
2019-03-15T06:37:43.615Z,98.97
2019-03-15T06:38:43.591Z,99.36
2019-03-15T06:39:43.580Z,98.97
2019-03-15T06:40:43.570Z,98.31
2019-03-15T06:41:43.563Z,98.88
2019-03-15T06:42:43.549Z,99.16
2019-03-15T06:43:43.538Z,99.07
2019-03-15T06:44:56.956Z,98.97
2019-03-15T06:45:44.390Z,99.36
2019-03-15T06:46:43.500Z,98.83
2019-03-15T06:47:43.489Z,99.41
2019-03-15T06:48:44.972Z,99.02
2019-03-15T06:49:43.468Z,98.93
2019-03-15T06:50:43.452Z,98.83
2019-03-15T06:51:43.445Z,98.83
2019-03-15T06:52:43.432Z,99.02
2019-03-15T06:53:43.421Z,98.83
2019-03-15T06:54:43.408Z,98.46
2019-03-15T06:55:43.401Z,98.36
2019-03-15T06:56:43.384Z,98.65
2019-03-15T06:57:43.374Z,98.46
2019-03-15T06:58:43.362Z,98.69
2019-03-15T06:59:43.354Z,97.84
2019-03-15T07:00:43.344Z,97.93
2019-03-15T07:01:43.330Z,97.93
2019-03-15T07:02:43.317Z,97.27
2019-03-15T07:03:43.308Z,97.46
2019-03-15T07:04:43.309Z,96.84
2019-03-15T07:05:43.288Z,95.98
2019-03-15T07:06:43.279Z,95.12
2019-03-15T07:07:43.267Z,94.08
2019-03-15T07:08:43.254Z,94.56
2019-03-15T07:09:43.245Z,94.37
2019-03-15T07:10:46.755Z,93.7
2019-03-15T07:11:43.225Z,93.89
2019-03-15T07:12:43.359Z,94.17
2019-03-15T07:13:43.205Z,94.46
2019-03-15T07:14:43.193Z,93.51
2019-03-15T07:15:46.510Z,93.51
2019-03-15T07:16:43.174Z,93.13
2019-03-15T07:17:44.144Z,93.13
2019-03-15T07:18:43.160Z,93.03
2019-03-15T07:19:43.142Z,92.98
2019-03-15T07:20:43.135Z,92.94
2019-03-15T07:21:43.122Z,92.55
2019-03-15T07:22:43.115Z,92.69
2019-03-15T07:23:43.103Z,92.5
2019-03-15T07:24:46.105Z,92.69
2019-03-15T07:25:43.083Z,92.5
2019-03-15T07:26:46.084Z,92.5
2019-03-15T07:27:45.139Z,92.13
2019-03-15T07:28:43.057Z,92.41
2019-03-15T07:29:43.045Z,92.22
2019-03-15T07:30:43.038Z,92.03
2019-03-15T07:31:43.028Z,91.03
2019-03-15T07:32:43.016Z,90.41
2019-03-15T07:33:43.010Z,90.17
2019-03-15T07:34:43.941Z,90.08
2019-03-15T07:35:42.986Z,89.98
2019-03-15T07:36:42.976Z,89.79
2019-03-15T07:37:45.445Z,89.79
2019-03-15T07:38:42.958Z,89.69
2019-03-15T07:39:42.948Z,88.93
2019-03-15T07:40:42.936Z,89.69
2019-03-15T07:41:42.930Z,89.89
2019-03-15T07:42:42.919Z,89.22
2019-03-15T07:43:42.911Z,88.17
2019-03-15T07:44:42.901Z,87.98
2019-03-15T07:45:42.894Z,86.74
2019-03-15T07:46:42.883Z,86.45
2019-03-15T07:47:42.873Z,87.07
2019-03-15T07:48:42.872Z,86.88
2019-03-15T07:49:42.856Z,86.88
2019-03-15T07:50:42.847Z,87.07
2019-03-15T07:51:42.840Z,87.07
2019-03-15T07:52:42.830Z,85.93
2019-03-15T07:53:42.821Z,84.4
2019-03-15T07:54:42.812Z,85.35
2019-03-15T07:55:42.803Z,86.02
2019-03-15T07:56:42.799Z,85.64
2019-03-15T07:57:42.813Z,86.02
2019-03-15T07:58:42.778Z,85.21
2019-03-15T07:59:42.771Z,85.77
2019-03-15T08:00:42.765Z,85.77
2019-03-15T08:01:42.753Z,85.3
2019-03-15T08:02:42.746Z,85.44
2019-03-15T08:03:42.737Z,85.34
2019-03-15T08:04:42.735Z,83.91
2019-03-15T08:05:42.721Z,83.91
2019-03-15T08:06:42.720Z,83.34
2019-03-15T08:07:47.974Z,82.86
2019-03-15T08:08:43.143Z,83.05
2019-03-15T08:09:42.692Z,82.86
2019-03-15T08:10:42.683Z,83.05
2019-03-15T08:11:42.680Z,82.86
2019-03-15T08:12:42.668Z,83.34
2019-03-15T08:13:42.659Z,82.86
2019-03-15T08:14:42.650Z,82.72
2019-03-15T08:15:42.644Z,81.9
2019-03-15T08:16:42.635Z,82.53
2019-03-15T08:17:42.647Z,82.43
2019-03-15T08:18:42.624Z,82.76
2019-03-15T08:19:42.613Z,82.15
2019-03-15T08:20:42.608Z,82.48
2019-03-15T08:21:42.600Z,82.48
2019-03-15T08:22:42.591Z,82
2019-03-15T08:23:42.582Z,81.24
2019-03-15T08:24:53.786Z,80.95
2019-03-15T08:25:42.567Z,81.14
2019-03-15T08:26:42.562Z,81.71
2019-03-15T08:27:42.556Z,81.81
2019-03-15T08:28:42.546Z,82.67
2019-03-15T08:29:42.542Z,81.81
2019-03-15T08:30:42.530Z,82
2019-03-15T08:31:42.610Z,81.71
2019-03-15T08:32:45.991Z,82
2019-03-15T08:33:42.510Z,82
2019-03-15T08:34:42.502Z,81.33
2019-03-15T08:35:42.495Z,81.9
2019-03-15T08:36:42.488Z,81.76
2019-03-15T08:37:42.480Z,80.7
2019-03-15T08:38:50.106Z,81.18
2019-03-15T08:39:42.467Z,81.18
2019-03-15T08:40:42.460Z,81.47
2019-03-15T08:41:42.455Z,81.56
2019-03-15T08:42:42.450Z,81.18
2019-03-15T08:43:45.741Z,81.18
2019-03-15T08:44:42.430Z,81.95
2019-03-15T08:45:42.421Z,81.41
2019-03-15T08:46:42.415Z,80.93
2019-03-15T08:47:42.412Z,79.6
2019-03-15T08:48:42.157Z,79.98
2019-03-15T08:49:42.397Z,80.07
2019-03-15T08:50:42.391Z,80.3
2019-03-15T08:51:42.387Z,80.88
2019-03-15T08:52:44.568Z,80.11
2019-03-15T08:53:42.366Z,79.64
2019-03-15T08:54:42.362Z,79.44
2019-03-15T08:55:42.555Z,79.16
2019-03-15T08:56:42.345Z,78.97
2019-03-15T08:57:42.346Z,78.87
2019-03-15T08:58:42.334Z,77.92
2019-03-15T08:59:58.966Z,78.11
2019-03-15T09:00:42.320Z,77.82
2019-03-15T09:01:42.321Z,78.97
2019-03-15T09:02:42.310Z,78.87
2019-03-15T09:03:42.301Z,79.25
2019-03-15T09:04:42.300Z,78.91
2019-03-15T09:05:42.292Z,77.57
2019-03-15T09:06:43.582Z,76.42
2019-03-15T09:07:42.285Z,76.9
2019-03-15T09:08:42.273Z,77.28
2019-03-15T09:09:42.029Z,76.33
2019-03-15T09:10:42.312Z,76.71
2019-03-15T09:11:42.252Z,77.38
2019-03-15T09:12:42.248Z,76.9
2019-03-15T09:13:42.242Z,77.48
2019-03-15T09:14:42.256Z,77.38
2019-03-15T09:15:42.230Z,77
2019-03-15T09:16:42.225Z,76.81
2019-03-15T09:17:42.244Z,76.37
2019-03-15T09:18:42.213Z,76.42
2019-03-15T09:19:42.227Z,76.52
2019-03-15T09:20:42.207Z,76.42
2019-03-15T09:21:42.194Z,76.33
2019-03-15T09:22:42.198Z,76.9
2019-03-15T09:23:42.181Z,77.19
2019-03-15T09:24:42.181Z,77.09
2019-03-15T09:25:42.171Z,76.9
2019-03-15T09:26:42.166Z,76.9
2019-03-15T09:27:45.188Z,76.23
2019-03-15T09:28:42.152Z,75.85
2019-03-15T09:29:42.161Z,75.66
2019-03-15T09:30:42.140Z,75.76
2019-03-15T09:31:50.010Z,75.95
2019-03-15T09:32:42.129Z,76.33
2019-03-15T09:33:42.124Z,76.37
2019-03-15T09:34:42.119Z,76.08
2019-03-15T09:35:42.119Z,76.56
2019-03-15T09:36:52.477Z,76.27
2019-03-15T09:37:42.109Z,76.21
2019-03-15T09:38:42.096Z,74.3
2019-03-15T09:39:42.097Z,73.54
2019-03-15T09:40:42.093Z,74.11
2019-03-15T09:41:42.761Z,73.91
2019-03-15T09:42:42.086Z,74.49
2019-03-15T09:43:45.153Z,73.91
2019-03-15T09:44:42.068Z,73.82
2019-03-15T09:45:42.071Z,74.4
2019-03-15T09:46:42.054Z,74.49
2019-03-15T09:47:42.048Z,74.4
2019-03-15T09:48:43.771Z,73.91
2019-03-15T09:49:42.040Z,72.96
2019-03-15T09:50:52.985Z,72
2019-03-15T09:51:41.784Z,72.67
2019-03-15T09:52:42.025Z,73.54
2019-03-15T09:53:42.019Z,73.24
2019-03-15T09:54:42.018Z,73.72
2019-03-15T09:55:42.010Z,73.44
2019-03-15T09:56:42.018Z,72.09
2019-03-15T09:57:42.047Z,71.81
2019-03-15T09:58:41.993Z,71.81
2019-03-15T09:59:42.005Z,72.09
2019-03-15T10:00:41.984Z,72.38
2019-03-15T10:01:41.977Z,73.34
2019-03-15T10:02:41.975Z,73.54
2019-03-15T10:03:41.970Z,72.96
2019-03-15T10:04:41.965Z,72.29
2019-03-15T10:05:41.957Z,71.94
2019-03-15T10:06:41.952Z,72.03
2019-03-15T10:07:45.726Z,72.13
2019-03-15T10:08:41.943Z,72.03
2019-03-15T10:09:48.856Z,71.94
2019-03-15T10:10:41.933Z,70.79
2019-03-15T10:11:41.929Z,70.7
2019-03-15T10:12:41.923Z,70.7
2019-03-15T10:13:41.922Z,70.5
2019-03-15T10:14:41.921Z,70.89
2019-03-15T10:15:42.057Z,70.41
2019-03-15T10:16:41.905Z,70.79
2019-03-15T10:17:41.899Z,70.89
2019-03-15T10:18:41.895Z,71.66
2019-03-15T10:19:41.893Z,71.46
2019-03-15T10:20:41.886Z,70.89
2019-03-15T10:21:41.881Z,70.6
2019-03-15T10:22:41.892Z,71.08
2019-03-15T10:23:41.870Z,70.83
2019-03-15T10:24:41.866Z,70.06
2019-03-15T10:25:51.195Z,69.2
2019-03-15T10:26:41.857Z,69.1
2019-03-15T10:27:41.854Z,68.81
2019-03-15T10:28:41.849Z,69.87
2019-03-15T10:29:41.603Z,70.35
2019-03-15T10:30:41.839Z,70.06
2019-03-15T10:31:41.836Z,69.01
2019-03-15T10:32:41.831Z,68.33
2019-03-15T10:33:52.532Z,68.81
2019-03-15T10:34:41.823Z,69.2
2019-03-15T10:35:41.819Z,68.52
2019-03-15T10:36:41.813Z,68.81
2019-03-15T10:37:41.808Z,68.05
2019-03-15T10:38:41.802Z,68.05
2019-03-15T10:39:41.806Z,67.38
2019-03-15T10:40:41.798Z,66.8
2019-03-15T10:41:41.791Z,67.18
2019-03-15T10:42:41.785Z,67.28
2019-03-15T10:43:41.783Z,66.99
2019-03-15T10:44:41.777Z,66.8
2019-03-15T10:45:41.772Z,66.89
2019-03-15T10:46:43.027Z,66.71
2019-03-15T10:47:44.760Z,67.09
2019-03-15T10:48:41.761Z,66.51
2019-03-15T10:49:41.759Z,66.03
2019-03-15T10:50:41.750Z,66.89
2019-03-15T10:51:41.782Z,66.99
2019-03-15T10:52:41.742Z,66.32
2019-03-15T10:53:41.746Z,66.77
2019-03-15T10:54:41.738Z,66.96
2019-03-15T10:55:41.735Z,66.77
2019-03-15T10:56:41.723Z,67.34
2019-03-15T10:57:41.721Z,66.77
2019-03-15T10:58:41.715Z,66.19
2019-03-15T10:59:41.710Z,65.81
2019-03-15T11:00:41.708Z,66.48
2019-03-15T11:01:41.700Z,66.38
2019-03-15T11:02:41.696Z,66.38
2019-03-15T11:03:41.689Z,66.29
2019-03-15T11:04:41.684Z,66.38
2019-03-15T11:05:41.682Z,66.38
2019-03-15T11:06:41.679Z,65.62
2019-03-15T11:07:41.674Z,66.29
2019-03-15T11:08:41.667Z,66.45
2019-03-15T11:09:41.667Z,66.74
2019-03-15T11:10:41.657Z,66.54
2019-03-15T11:11:41.668Z,66.93
2019-03-15T11:12:41.649Z,67.08
2019-03-15T11:13:41.642Z,68.04
2019-03-15T11:14:41.637Z,68.33
2019-03-15T11:15:41.633Z,68.9
2019-03-15T11:16:41.625Z,69.29
2019-03-15T11:17:41.631Z,68.71
2019-03-15T11:18:41.614Z,68.52
2019-03-15T11:19:41.610Z,68.27
2019-03-15T11:20:41.604Z,68.42
2019-03-15T11:21:41.601Z,67.66
2019-03-15T11:22:41.597Z,68.42
2019-03-15T11:23:41.585Z,68.62
2019-03-15T11:24:43.708Z,68.71
2019-03-15T11:25:41.593Z,68.52
2019-03-15T11:26:41.571Z,69.19
2019-03-15T11:27:41.674Z,68.55
2019-03-15T11:28:41.561Z,68.65
2019-03-15T11:29:41.559Z,68.65
2019-03-15T11:30:41.551Z,68.36
2019-03-15T11:31:41.543Z,68.55
2019-03-15T11:32:41.602Z,68.36
2019-03-15T11:33:41.532Z,68.74
2019-03-15T11:34:41.526Z,67.98
2019-03-15T11:35:41.523Z,66.64
2019-03-15T11:36:41.613Z,66.74
2019-03-15T11:37:41.510Z,67.02
2019-03-15T11:38:41.508Z,67.02
2019-03-15T11:39:41.499Z,67.41
2019-03-15T11:40:41.495Z,66.38
2019-03-15T11:41:41.493Z,66.09
2019-03-15T11:42:41.495Z,66
2019-03-15T11:43:41.478Z,65.52
2019-03-15T11:44:41.477Z,66.16
2019-03-15T11:45:41.468Z,66.09
2019-03-15T11:46:41.508Z,66.38
2019-03-15T11:48:04.248Z,66
2019-03-15T11:48:41.460Z,65.62
2019-03-15T11:49:41.450Z,65.52
2019-03-15T11:50:41.445Z,63.42
2019-03-15T11:51:44.933Z,63.42
2019-03-15T11:52:41.443Z,63.42
2019-03-15T11:53:41.427Z,63.99
2019-03-15T11:54:41.429Z,64.47
2019-03-15T11:55:41.422Z,64.66
2019-03-15T11:56:41.413Z,64.37
2019-03-15T11:57:41.409Z,63.99
2019-03-15T11:58:41.403Z,64.56
2019-03-15T11:59:41.403Z,64.28
2019-03-15T12:00:41.394Z,64.18
2019-03-15T12:01:41.389Z,63.13
2019-03-15T12:02:41.384Z,62.93
2019-03-15T12:03:54.763Z,63.03
2019-03-15T12:04:41.375Z,63.99
2019-03-15T12:05:41.370Z,64.56
2019-03-15T12:06:41.380Z,64.02
2019-03-15T12:07:41.367Z,63.45
2019-03-15T12:08:41.357Z,63.45
2019-03-15T12:09:43.488Z,63.54
2019-03-15T12:10:41.348Z,63.26
2019-03-15T12:11:41.341Z,63.54
2019-03-15T12:12:41.339Z,62.87
2019-03-15T12:13:41.334Z,63.35
2019-03-15T12:14:43.743Z,63.29
2019-03-15T12:15:41.324Z,63.09
2019-03-15T12:16:41.322Z,62.96
2019-03-15T12:17:41.320Z,63.16
2019-03-15T12:18:41.313Z,62.96
2019-03-15T12:19:41.308Z,62.96
2019-03-15T12:20:41.315Z,63.64
2019-03-15T12:21:41.301Z,64.18
2019-03-15T12:22:41.293Z,64.56
2019-03-15T12:23:41.290Z,63.99
2019-03-15T12:24:41.281Z,64.09
2019-03-15T12:25:41.282Z,65.52
2019-03-15T12:26:43.078Z,65.23
2019-03-15T12:27:41.277Z,64.47
2019-03-15T12:28:41.266Z,64.56
2019-03-15T12:29:41.263Z,65.23
2019-03-15T12:30:42.983Z,65.33
2019-03-15T12:31:41.250Z,64.95
2019-03-15T12:32:41.251Z,65.05
2019-03-15T12:33:41.240Z,65.62
2019-03-15T12:34:41.238Z,65.14
2019-03-15T12:35:41.228Z,65.23
2019-03-15T12:36:41.286Z,65.52
2019-03-15T12:37:41.223Z,64.85
2019-03-15T12:38:41.216Z,65.11
2019-03-15T12:39:41.211Z,65.97
2019-03-15T12:40:41.204Z,66.25
2019-03-15T12:41:41.202Z,66.74
2019-03-15T12:42:41.195Z,66.74
2019-03-15T12:43:41.191Z,67.31
2019-03-15T12:44:41.183Z,66.54
2019-03-15T12:45:41.183Z,66.64
2019-03-15T12:46:41.178Z,66.54
2019-03-15T12:47:41.168Z,66.54
2019-03-15T12:48:41.161Z,66.48
2019-03-15T12:49:41.161Z,66.25
2019-03-15T12:50:41.152Z,65.81
2019-03-15T12:51:40.905Z,64.95
2019-03-15T12:52:49.659Z,65.52
2019-03-15T12:53:41.135Z,65.62
2019-03-15T12:54:41.129Z,65.91
2019-03-15T12:55:41.124Z,65.81